24 Datensätze sind 1 Tag. Aufzeichnung ab 07. Oktober 2014.
Werte (Summe von Anzahl und Position darf nicht größer sein als mögliche Datensätze).
Anzahl:
Position: Summe:
\ 19773 Datensätze möglich.
  20 letzte Aufzeichnungen
gezeigte Daten 20 ab Position 1    Summe der Auswahl = 21
22.03.2017 / 19:29 Uhr bis 23.03.2017 / 14:29 Uhr
Regenmenge 0 Liter

Datum/Zeit Temp. Taupunkt Luftfeuchte Wind speed Wind böhe Wind Temp. Regen Summe Luftdruck
23.03.2017 | 15:29 Uhr 9.1C 4.5C 73% 0.1 kmh 0.5kmh 8.9C 0.0mm 999.4111mBar/hPa
23.03.2017 | 14:29 Uhr 9.2C 4.2C 71% 5.1 kmh 0.6kmh 9.2C 0.0mm 999.0986mBar/hPa
23.03.2017 | 13:30 Uhr 9.5C 4.5C 71% 7.2 kmh 1.0kmh 9.8C 0.0mm 999.0361mBar/hPa
23.03.2017 | 12:29 Uhr 9.9C 4.5C 69% 5.2 kmh 0.6kmh 10.6C 0.0mm 999.0986mBar/hPa
23.03.2017 | 11:29 Uhr 10.1C 4.7C 69% 0.0 kmh 0.5kmh 12.6C 0.0mm 999.0361mBar/hPa
23.03.2017 | 10:30 Uhr 9.2C 4.4C 72% 0.0 kmh 0.5kmh 10.8C 0.0mm 999.1611mBar/hPa
23.03.2017 | 09:30 Uhr 7.9C 3.7C 75% 0.1 kmh 1.3kmh 9.0C 0.0mm 999.1611mBar/hPa
23.03.2017 | 08:30 Uhr 6.5C 3.1C 79% 0.0 kmh 0.3kmh 7.0C 0.0mm 999.2236mBar/hPa
23.03.2017 | 07:30 Uhr 6.0C 2.6C 79% 0.0 kmh 0.4kmh 6.2C 0.0mm 998.9736mBar/hPa
23.03.2017 | 06:29 Uhr 5.7C 2.5C 80% 0.0 kmh 0.4kmh 5.2C 0.0mm 998.5986mBar/hPa
23.03.2017 | 05:29 Uhr 5.6C 2.2C 79% 0.0 kmh 0.0kmh 4.5C 0.0mm 998.4736mBar/hPa
23.03.2017 | 04:29 Uhr 5.8C 2.3C 78% 0.0 kmh 0.1kmh 4.8C 0.0mm 998.1611mBar/hPa
23.03.2017 | 03:29 Uhr 5.9C 2.4C 78% 0.0 kmh 0.1kmh 5.0C 0.0mm 998.2861mBar/hPa
23.03.2017 | 02:29 Uhr 6.1C 2.2C 76% 3.1 kmh 0.1kmh 5.1C 0.0mm 998.2861mBar/hPa
23.03.2017 | 01:29 Uhr 6.5C 2.6C 76% 0.0 kmh 0.0kmh 5.5C 0.0mm 998.7861mBar/hPa
23.03.2017 | 00:30 Uhr 6.5C 2.4C 75% 0.0 kmh 0.0kmh 5.6C 0.0mm 999.1611mBar/hPa
22.03.2017 | 23:29 Uhr 6.7C 2.6C 75% 0.0 kmh 0.0kmh 5.9C 0.0mm 998.7861mBar/hPa
22.03.2017 | 22:30 Uhr 6.6C 2.3C 74% 6.1 kmh 0.3kmh 5.9C 0.0mm 999.0986mBar/hPa
22.03.2017 | 21:30 Uhr 6.7C 2.2C 73% 0.1 kmh 0.2kmh 5.9C 0.0mm 998.8486mBar/hPa
22.03.2017 | 20:30 Uhr 7.0C 2.1C 71% 0.2 kmh 0.5kmh 6.1C 0.0mm 998.4736mBar/hPa